sensor_id;sensor_type;location;lat;lon;timestamp;P1;durP1;ratioP1;P2;durP2;ratioP2
69369;SDS011;56530;42.640;23.372;2022-07-29T00:00:58;7.20;;;6.60;;
69369;SDS011;56530;42.640;23.372;2022-07-29T00:03:23;8.65;;;6.65;;
69369;SDS011;56530;42.640;23.372;2022-07-29T00:05:49;13.18;;;7.47;;
69369;SDS011;56530;42.640;23.372;2022-07-29T00:08:14;8.68;;;7.75;;
69369;SDS011;56530;42.640;23.372;2022-07-29T00:10:40;14.95;;;8.45;;
69369;SDS011;56530;42.640;23.372;2022-07-29T00:13:06;8.27;;;7.53;;
69369;SDS011;56530;42.640;23.372;2022-07-29T00:15:32;7.65;;;7.05;;
69369;SDS011;56530;42.640;23.372;2022-07-29T00:17:58;10.33;;;9.10;;
69369;SDS011;56530;42.640;23.372;2022-07-29T00:20:23;8.48;;;7.78;;
69369;SDS011;56530;42.640;23.372;2022-07-29T00:22:48;9.10;;;8.13;;
69369;SDS011;56530;42.640;23.372;2022-07-29T00:25:14;8.75;;;7.72;;
69369;SDS011;56530;42.640;23.372;2022-07-29T00:27:39;8.85;;;8.05;;
69369;SDS011;56530;42.640;23.372;2022-07-29T00:30:05;8.30;;;7.57;;
69369;SDS011;56530;42.640;23.372;2022-07-29T00:32:31;9.32;;;7.93;;
69369;SDS011;56530;42.640;23.372;2022-07-29T00:34:57;9.68;;;8.68;;
69369;SDS011;56530;42.640;23.372;2022-07-29T00:37:41;8.68;;;7.78;;
69369;SDS011;56530;42.640;23.372;2022-07-29T00:40:07;9.27;;;8.07;;
69369;SDS011;56530;42.640;23.372;2022-07-29T00:42:44;8.75;;;8.02;;
69369;SDS011;56530;42.640;23.372;2022-07-29T00:45:10;8.18;;;7.38;;
69369;SDS011;56530;42.640;23.372;2022-07-29T00:47:36;8.85;;;8.13;;
69369;SDS011;56530;42.640;23.372;2022-07-29T00:50:03;10.88;;;7.82;;
69369;SDS011;56530;42.640;23.372;2022-07-29T00:52:30;8.60;;;7.72;;
69369;SDS011;56530;42.640;23.372;2022-07-29T00:54:55;8.38;;;7.60;;
69369;SDS011;56530;42.640;23.372;2022-07-29T00:57:21;10.63;;;8.23;;
69369;SDS011;56530;42.640;23.372;2022-07-29T00:59:47;8.43;;;7.63;;
69369;SDS011;56530;42.640;23.372;2022-07-29T01:02:12;8.65;;;7.85;;
69369;SDS011;56530;42.640;23.372;2022-07-29T01:04:38;9.57;;;8.75;;
69369;SDS011;56530;42.640;23.372;2022-07-29T01:07:03;8.13;;;7.45;;
69369;SDS011;56530;42.640;23.372;2022-07-29T01:09:30;8.65;;;7.95;;
69369;SDS011;56530;42.640;23.372;2022-07-29T01:11:56;9.77;;;8.38;;
69369;SDS011;56530;42.640;23.372;2022-07-29T01:14:22;9.30;;;8.50;;
69369;SDS011;56530;42.640;23.372;2022-07-29T01:16:51;8.73;;;7.75;;
69369;SDS011;56530;42.640;23.372;2022-07-29T01:19:33;9.18;;;8.10;;
69369;SDS011;56530;42.640;23.372;2022-07-29T01:25:02;8.60;;;7.53;;
69369;SDS011;56530;42.640;23.372;2022-07-29T01:30:17;10.75;;;7.10;;
69369;SDS011;56530;42.640;23.372;2022-07-29T01:32:43;8.05;;;7.25;;
69369;SDS011;56530;42.640;23.372;2022-07-29T01:37:52;9.05;;;8.23;;
69369;SDS011;56530;42.640;23.372;2022-07-29T01:40:29;8.60;;;7.90;;
69369;SDS011;56530;42.640;23.372;2022-07-29T01:43:00;8.05;;;6.78;;
69369;SDS011;56530;42.640;23.372;2022-07-29T01:45:34;9.38;;;8.30;;
69369;SDS011;56530;42.640;23.372;2022-07-29T01:48:13;9.10;;;8.30;;
69369;SDS011;56530;42.640;23.372;2022-07-29T01:53:23;9.63;;;8.35;;
69369;SDS011;56530;42.640;23.372;2022-07-29T01:55:51;8.93;;;7.50;;
69369;SDS011;56530;42.640;23.372;2022-07-29T01:58:18;12.27;;;7.55;;
69369;SDS011;56530;42.640;23.372;2022-07-29T02:00:44;7.90;;;7.20;;
69369;SDS011;56530;42.640;23.372;2022-07-29T02:03:11;9.15;;;8.27;;
69369;SDS011;56530;42.640;23.372;2022-07-29T02:05:37;8.15;;;7.38;;
69369;SDS011;56530;42.640;23.372;2022-07-29T02:08:04;9.95;;;7.78;;
69369;SDS011;56530;42.640;23.372;2022-07-29T02:10:31;11.88;;;7.57;;
69369;SDS011;56530;42.640;23.372;2022-07-29T02:12:58;9.68;;;8.10;;
69369;SDS011;56530;42.640;23.372;2022-07-29T02:15:24;8.18;;;7.43;;
69369;SDS011;56530;42.640;23.372;2022-07-29T02:17:56;10.48;;;7.88;;
69369;SDS011;56530;42.640;23.372;2022-07-29T02:20:24;9.18;;;8.23;;
69369;SDS011;56530;42.640;23.372;2022-07-29T02:22:50;9.65;;;7.65;;
69369;SDS011;56530;42.640;23.372;2022-07-29T02:25:17;9.65;;;8.00;;
69369;SDS011;56530;42.640;23.372;2022-07-29T02:27:43;7.63;;;6.78;;
69369;SDS011;56530;42.640;23.372;2022-07-29T02:30:09;8.65;;;7.85;;
69369;SDS011;56530;42.640;23.372;2022-07-29T02:32:36;12.43;;;7.53;;
69369;SDS011;56530;42.640;23.372;2022-07-29T02:35:03;10.60;;;8.10;;
69369;SDS011;56530;42.640;23.372;2022-07-29T02:37:30;8.45;;;7.70;;
69369;SDS011;56530;42.640;23.372;2022-07-29T02:39:56;8.00;;;7.30;;
69369;SDS011;56530;42.640;23.372;2022-07-29T02:42:22;12.25;;;7.13;;
69369;SDS011;56530;42.640;23.372;2022-07-29T02:44:49;11.10;;;8.10;;
69369;SDS011;56530;42.640;23.372;2022-07-29T02:47:27;8.70;;;7.88;;
69369;SDS011;56530;42.640;23.372;2022-07-29T02:50:04;8.73;;;6.35;;
69369;SDS011;56530;42.640;23.372;2022-07-29T02:55:10;11.52;;;8.45;;
69369;SDS011;56530;42.640;23.372;2022-07-29T02:57:51;7.45;;;6.72;;
69369;SDS011;56530;42.640;23.372;2022-07-29T03:00:20;6.25;;;5.65;;
69369;SDS011;56530;42.640;23.372;2022-07-29T03:02:49;8.75;;;6.07;;
69369;SDS011;56530;42.640;23.372;2022-07-29T03:05:17;6.55;;;5.95;;
69369;SDS011;56530;42.640;23.372;2022-07-29T03:07:45;8.00;;;7.18;;
69369;SDS011;56530;42.640;23.372;2022-07-29T03:10:12;8.23;;;7.32;;
69369;SDS011;56530;42.640;23.372;2022-07-29T03:12:38;6.78;;;6.22;;
69369;SDS011;56530;42.640;23.372;2022-07-29T03:15:05;9.05;;;7.40;;
69369;SDS011;56530;42.640;23.372;2022-07-29T03:17:31;10.38;;;7.57;;
69369;SDS011;56530;42.640;23.372;2022-07-29T03:19:57;10.30;;;7.32;;
69369;SDS011;56530;42.640;23.372;2022-07-29T03:22:23;8.48;;;7.68;;
69369;SDS011;56530;42.640;23.372;2022-07-29T03:24:49;9.27;;;8.00;;
69369;SDS011;56530;42.640;23.372;2022-07-29T03:27:14;8.43;;;7.72;;
69369;SDS011;56530;42.640;23.372;2022-07-29T03:29:39;9.40;;;8.50;;
69369;SDS011;56530;42.640;23.372;2022-07-29T03:32:05;9.20;;;7.07;;
69369;SDS011;56530;42.640;23.372;2022-07-29T03:34:31;10.50;;;7.97;;
69369;SDS011;56530;42.640;23.372;2022-07-29T03:36:56;10.02;;;7.40;;
69369;SDS011;56530;42.640;23.372;2022-07-29T03:39:23;10.77;;;8.32;;
69369;SDS011;56530;42.640;23.372;2022-07-29T03:41:52;8.43;;;6.88;;
69369;SDS011;56530;42.640;23.372;2022-07-29T03:44:19;9.50;;;8.02;;
69369;SDS011;56530;42.640;23.372;2022-07-29T03:46:46;8.20;;;7.30;;
69369;SDS011;56530;42.640;23.372;2022-07-29T03:49:14;9.82;;;7.00;;
69369;SDS011;56530;42.640;23.372;2022-07-29T03:51:40;8.55;;;6.93;;
69369;SDS011;56530;42.640;23.372;2022-07-29T03:54:05;9.70;;;6.72;;
69369;SDS011;56530;42.640;23.372;2022-07-29T03:56:32;8.25;;;7.25;;
69369;SDS011;56530;42.640;23.372;2022-07-29T03:59:00;7.13;;;6.53;;
69369;SDS011;56530;42.640;23.372;2022-07-29T04:01:27;7.50;;;6.88;;
69369;SDS011;56530;42.640;23.372;2022-07-29T04:03:53;9.05;;;6.93;;
69369;SDS011;56530;42.640;23.372;2022-07-29T04:06:18;8.18;;;6.78;;
69369;SDS011;56530;42.640;23.372;2022-07-29T04:08:44;7.22;;;6.63;;
69369;SDS011;56530;42.640;23.372;2022-07-29T04:11:09;9.05;;;6.75;;
69369;SDS011;56530;42.640;23.372;2022-07-29T04:13:34;7.28;;;6.43;;
69369;SDS011;56530;42.640;23.372;2022-07-29T04:16:00;12.07;;;5.93;;
69369;SDS011;56530;42.640;23.372;2022-07-29T04:18:26;6.20;;;5.60;;
69369;SDS011;56530;42.640;23.372;2022-07-29T04:20:51;6.07;;;5.45;;
69369;SDS011;56530;42.640;23.372;2022-07-29T04:23:17;9.82;;;6.18;;
69369;SDS011;56530;42.640;23.372;2022-07-29T04:25:42;8.38;;;5.45;;
69369;SDS011;56530;42.640;23.372;2022-07-29T04:28:08;11.05;;;5.25;;
69369;SDS011;56530;42.640;23.372;2022-07-29T04:30:35;6.93;;;6.05;;
69369;SDS011;56530;42.640;23.372;2022-07-29T04:33:01;7.05;;;6.43;;
69369;SDS011;56530;42.640;23.372;2022-07-29T04:35:28;5.70;;;5.10;;
69369;SDS011;56530;42.640;23.372;2022-07-29T04:37:59;9.10;;;5.60;;
69369;SDS011;56530;42.640;23.372;2022-07-29T04:40:24;5.13;;;4.72;;
69369;SDS011;56530;42.640;23.372;2022-07-29T04:42:49;9.52;;;5.10;;
69369;SDS011;56530;42.640;23.372;2022-07-29T04:45:15;8.32;;;5.82;;
69369;SDS011;56530;42.640;23.372;2022-07-29T04:47:40;14.60;;;5.50;;
69369;SDS011;56530;42.640;23.372;2022-07-29T04:50:06;5.72;;;4.88;;
69369;SDS011;56530;42.640;23.372;2022-07-29T04:52:33;5.35;;;4.75;;
69369;SDS011;56530;42.640;23.372;2022-07-29T04:54:59;6.85;;;5.40;;
69369;SDS011;56530;42.640;23.372;2022-07-29T04:57:25;5.70;;;4.97;;
69369;SDS011;56530;42.640;23.372;2022-07-29T04:59:50;6.53;;;5.00;;
69369;SDS011;56530;42.640;23.372;2022-07-29T05:02:16;9.13;;;5.82;;
69369;SDS011;56530;42.640;23.372;2022-07-29T05:04:41;6.57;;;5.07;;
69369;SDS011;56530;42.640;23.372;2022-07-29T05:07:06;6.80;;;5.70;;
69369;SDS011;56530;42.640;23.372;2022-07-29T05:09:32;8.35;;;5.38;;
69369;SDS011;56530;42.640;23.372;2022-07-29T05:11:57;9.68;;;5.55;;
69369;SDS011;56530;42.640;23.372;2022-07-29T05:14:23;7.90;;;6.03;;
69369;SDS011;56530;42.640;23.372;2022-07-29T05:16:48;6.20;;;5.60;;
69369;SDS011;56530;42.640;23.372;2022-07-29T05:19:16;6.68;;;5.78;;
69369;SDS011;56530;42.640;23.372;2022-07-29T05:21:42;6.20;;;5.70;;
69369;SDS011;56530;42.640;23.372;2022-07-29T05:24:07;7.75;;;5.80;;
69369;SDS011;56530;42.640;23.372;2022-07-29T05:26:33;6.07;;;5.57;;
69369;SDS011;56530;42.640;23.372;2022-07-29T05:28:58;7.93;;;6.22;;
69369;SDS011;56530;42.640;23.372;2022-07-29T05:31:24;6.18;;;5.63;;
69369;SDS011;56530;42.640;23.372;2022-07-29T05:33:49;6.63;;;5.90;;
69369;SDS011;56530;42.640;23.372;2022-07-29T05:36:14;7.30;;;6.60;;
69369;SDS011;56530;42.640;23.372;2022-07-29T05:38:40;8.32;;;6.13;;
69369;SDS011;56530;42.640;23.372;2022-07-29T05:41:05;7.70;;;7.00;;
69369;SDS011;56530;42.640;23.372;2022-07-29T05:43:31;7.47;;;6.07;;
69369;SDS011;56530;42.640;23.372;2022-07-29T05:45:57;9.05;;;6.72;;
69369;SDS011;56530;42.640;23.372;2022-07-29T05:48:22;9.82;;;6.82;;
69369;SDS011;56530;42.640;23.372;2022-07-29T05:50:48;12.98;;;7.18;;
69369;SDS011;56530;42.640;23.372;2022-07-29T05:53:13;10.32;;;8.13;;
69369;SDS011;56530;42.640;23.372;2022-07-29T05:55:39;8.95;;;7.28;;
69369;SDS011;56530;42.640;23.372;2022-07-29T05:58:04;9.93;;;7.75;;
69369;SDS011;56530;42.640;23.372;2022-07-29T06:00:30;8.45;;;7.00;;
69369;SDS011;56530;42.640;23.372;2022-07-29T06:02:55;12.65;;;7.30;;
69369;SDS011;56530;42.640;23.372;2022-07-29T06:05:21;17.45;;;7.00;;
69369;SDS011;56530;42.640;23.372;2022-07-29T06:07:47;14.90;;;7.95;;
69369;SDS011;56530;42.640;23.372;2022-07-29T06:10:13;10.52;;;6.50;;
69369;SDS011;56530;42.640;23.372;2022-07-29T06:12:38;8.98;;;8.15;;
69369;SDS011;56530;42.640;23.372;2022-07-29T06:15:04;14.90;;;7.57;;
69369;SDS011;56530;42.640;23.372;2022-07-29T06:17:29;7.82;;;7.05;;
69369;SDS011;56530;42.640;23.372;2022-07-29T06:19:55;11.00;;;6.57;;
69369;SDS011;56530;42.640;23.372;2022-07-29T06:22:20;12.40;;;7.00;;
69369;SDS011;56530;42.640;23.372;2022-07-29T06:24:46;7.57;;;6.72;;
69369;SDS011;56530;42.640;23.372;2022-07-29T06:27:11;14.40;;;7.72;;
69369;SDS011;56530;42.640;23.372;2022-07-29T06:29:36;12.90;;;8.15;;
69369;SDS011;56530;42.640;23.372;2022-07-29T06:32:02;13.07;;;9.35;;
69369;SDS011;56530;42.640;23.372;2022-07-29T06:34:28;13.50;;;6.47;;
69369;SDS011;56530;42.640;23.372;2022-07-29T06:36:54;12.07;;;8.00;;
69369;SDS011;56530;42.640;23.372;2022-07-29T06:39:19;9.25;;;7.35;;
69369;SDS011;56530;42.640;23.372;2022-07-29T06:41:48;8.98;;;7.60;;
69369;SDS011;56530;42.640;23.372;2022-07-29T06:44:15;9.93;;;8.33;;
69369;SDS011;56530;42.640;23.372;2022-07-29T06:46:41;14.10;;;9.35;;
69369;SDS011;56530;42.640;23.372;2022-07-29T06:49:06;7.97;;;7.28;;
69369;SDS011;56530;42.640;23.372;2022-07-29T06:51:32;8.48;;;6.78;;
69369;SDS011;56530;42.640;23.372;2022-07-29T06:53:58;7.72;;;6.75;;
69369;SDS011;56530;42.640;23.372;2022-07-29T06:56:24;7.75;;;7.03;;
69369;SDS011;56530;42.640;23.372;2022-07-29T06:58:50;11.15;;;7.88;;
69369;SDS011;56530;42.640;23.372;2022-07-29T07:01:15;9.70;;;6.68;;
69369;SDS011;56530;42.640;23.372;2022-07-29T07:03:41;13.68;;;7.30;;
69369;SDS011;56530;42.640;23.372;2022-07-29T07:06:07;11.13;;;5.93;;
69369;SDS011;56530;42.640;23.372;2022-07-29T07:08:35;6.53;;;5.93;;
69369;SDS011;56530;42.640;23.372;2022-07-29T07:11:05;7.10;;;5.80;;
69369;SDS011;56530;42.640;23.372;2022-07-29T07:13:32;6.50;;;5.90;;
69369;SDS011;56530;42.640;23.372;2022-07-29T07:15:59;5.82;;;5.25;;
69369;SDS011;56530;42.640;23.372;2022-07-29T07:18:25;7.70;;;5.82;;
69369;SDS011;56530;42.640;23.372;2022-07-29T07:20:51;6.18;;;5.20;;
69369;SDS011;56530;42.640;23.372;2022-07-29T07:23:16;5.38;;;4.88;;
69369;SDS011;56530;42.640;23.372;2022-07-29T07:25:42;5.68;;;5.28;;
69369;SDS011;56530;42.640;23.372;2022-07-29T07:28:07;7.25;;;4.93;;
69369;SDS011;56530;42.640;23.372;2022-07-29T07:30:32;9.35;;;5.07;;
69369;SDS011;56530;42.640;23.372;2022-07-29T07:32:59;5.40;;;4.95;;
69369;SDS011;56530;42.640;23.372;2022-07-29T07:35:24;5.43;;;4.70;;
69369;SDS011;56530;42.640;23.372;2022-07-29T07:37:52;5.00;;;4.40;;
69369;SDS011;56530;42.640;23.372;2022-07-29T07:40:18;5.68;;;4.30;;
69369;SDS011;56530;42.640;23.372;2022-07-29T07:42:43;4.93;;;4.05;;
69369;SDS011;56530;42.640;23.372;2022-07-29T07:45:09;4.78;;;4.38;;
69369;SDS011;56530;42.640;23.372;2022-07-29T07:47:35;4.65;;;4.28;;
69369;SDS011;56530;42.640;23.372;2022-07-29T07:50:02;4.20;;;3.80;;
69369;SDS011;56530;42.640;23.372;2022-07-29T07:52:29;5.78;;;4.43;;
69369;SDS011;56530;42.640;23.372;2022-07-29T07:54:54;4.65;;;4.20;;
69369;SDS011;56530;42.640;23.372;2022-07-29T07:57:20;4.20;;;3.80;;
69369;SDS011;56530;42.640;23.372;2022-07-29T07:59:45;4.43;;;4.03;;
69369;SDS011;56530;42.640;23.372;2022-07-29T08:02:11;5.05;;;4.15;;
69369;SDS011;56530;42.640;23.372;2022-07-29T08:04:36;4.30;;;4.00;;
69369;SDS011;56530;42.640;23.372;2022-07-29T08:07:02;7.50;;;4.55;;
69369;SDS011;56530;42.640;23.372;2022-07-29T08:09:28;5.80;;;3.92;;
69369;SDS011;56530;42.640;23.372;2022-07-29T08:11:54;5.95;;;4.10;;
69369;SDS011;56530;42.640;23.372;2022-07-29T08:14:20;3.58;;;3.25;;
69369;SDS011;56530;42.640;23.372;2022-07-29T08:16:45;3.97;;;3.67;;
69369;SDS011;56530;42.640;23.372;2022-07-29T08:19:11;4.10;;;3.80;;
69369;SDS011;56530;42.640;23.372;2022-07-29T08:21:37;5.65;;;3.80;;
69369;SDS011;56530;42.640;23.372;2022-07-29T08:24:02;7.60;;;3.90;;
69369;SDS011;56530;42.640;23.372;2022-07-29T08:26:46;5.53;;;4.07;;
69369;SDS011;56530;42.640;23.372;2022-07-29T08:29:12;4.45;;;3.30;;
69369;SDS011;56530;42.640;23.372;2022-07-29T08:31:37;5.55;;;3.70;;
69369;SDS011;56530;42.640;23.372;2022-07-29T08:34:04;7.05;;;3.80;;
69369;SDS011;56530;42.640;23.372;2022-07-29T08:36:30;4.88;;;4.35;;
69369;SDS011;56530;42.640;23.372;2022-07-29T08:38:55;3.88;;;3.58;;
69369;SDS011;56530;42.640;23.372;2022-07-29T08:41:21;3.47;;;3.25;;
69369;SDS011;56530;42.640;23.372;2022-07-29T08:43:48;4.32;;;3.83;;
69369;SDS011;56530;42.640;23.372;2022-07-29T08:46:14;4.25;;;3.75;;
69369;SDS011;56530;42.640;23.372;2022-07-29T08:48:41;4.85;;;3.80;;
69369;SDS011;56530;42.640;23.372;2022-07-29T08:51:06;5.80;;;3.67;;
69369;SDS011;56530;42.640;23.372;2022-07-29T08:53:32;4.20;;;3.42;;
69369;SDS011;56530;42.640;23.372;2022-07-29T08:55:58;4.32;;;3.92;;
69369;SDS011;56530;42.640;23.372;2022-07-29T08:58:24;4.07;;;3.50;;
69369;SDS011;56530;42.640;23.372;2022-07-29T09:00:51;5.03;;;3.65;;
69369;SDS011;56530;42.640;23.372;2022-07-29T09:03:18;12.27;;;3.90;;
69369;SDS011;56530;42.640;23.372;2022-07-29T09:05:45;4.85;;;3.95;;
69369;SDS011;56530;42.640;23.372;2022-07-29T09:08:12;5.28;;;3.75;;
69369;SDS011;56530;42.640;23.372;2022-07-29T09:10:38;3.65;;;3.33;;
69369;SDS011;56530;42.640;23.372;2022-07-29T09:13:04;6.75;;;4.28;;
69369;SDS011;56530;42.640;23.372;2022-07-29T09:15:30;3.92;;;3.38;;
69369;SDS011;56530;42.640;23.372;2022-07-29T09:17:55;4.30;;;3.30;;
69369;SDS011;56530;42.640;23.372;2022-07-29T09:20:23;4.43;;;4.03;;
69369;SDS011;56530;42.640;23.372;2022-07-29T09:22:49;7.28;;;4.57;;
69369;SDS011;56530;42.640;23.372;2022-07-29T09:25:39;4.40;;;3.90;;
69369;SDS011;56530;42.640;23.372;2022-07-29T09:28:09;5.75;;;4.22;;
69369;SDS011;56530;42.640;23.372;2022-07-29T09:30:52;4.35;;;3.97;;
69369;SDS011;56530;42.640;23.372;2022-07-29T09:33:20;4.68;;;4.07;;
69369;SDS011;56530;42.640;23.372;2022-07-29T09:35:46;4.18;;;3.80;;
69369;SDS011;56530;42.640;23.372;2022-07-29T09:38:12;4.38;;;3.95;;
69369;SDS011;56530;42.640;23.372;2022-07-29T09:40:38;4.88;;;4.40;;
69369;SDS011;56530;42.640;23.372;2022-07-29T09:43:14;4.68;;;4.28;;
69369;SDS011;56530;42.640;23.372;2022-07-29T09:45:39;5.20;;;4.15;;
69369;SDS011;56530;42.640;23.372;2022-07-29T09:48:15;5.65;;;4.90;;
69369;SDS011;56530;42.640;23.372;2022-07-29T09:50:43;4.43;;;4.03;;
69369;SDS011;56530;42.640;23.372;2022-07-29T09:53:09;5.22;;;4.72;;
69369;SDS011;56530;42.640;23.372;2022-07-29T09:58:20;5.90;;;4.68;;
69369;SDS011;56530;42.640;23.372;2022-07-29T10:00:47;9.35;;;4.95;;
69369;SDS011;56530;42.640;23.372;2022-07-29T10:03:15;4.47;;;3.90;;
69369;SDS011;56530;42.640;23.372;2022-07-29T10:05:42;4.28;;;3.90;;
69369;SDS011;56530;42.640;23.372;2022-07-29T10:08:08;6.20;;;4.05;;
69369;SDS011;56530;42.640;23.372;2022-07-29T10:10:38;5.15;;;4.50;;
69369;SDS011;56530;42.640;23.372;2022-07-29T10:13:13;5.03;;;4.63;;
69369;SDS011;56530;42.640;23.372;2022-07-29T10:15:42;7.22;;;4.97;;
69369;SDS011;56530;42.640;23.372;2022-07-29T10:18:10;5.47;;;5.00;;
69369;SDS011;56530;42.640;23.372;2022-07-29T10:20:39;6.78;;;5.10;;
69369;SDS011;56530;42.640;23.372;2022-07-29T10:23:05;5.45;;;5.00;;
69369;SDS011;56530;42.640;23.372;2022-07-29T10:25:31;5.25;;;4.38;;
69369;SDS011;56530;42.640;23.372;2022-07-29T10:27:57;5.60;;;4.97;;
69369;SDS011;56530;42.640;23.372;2022-07-29T10:30:22;6.38;;;5.75;;
69369;SDS011;56530;42.640;23.372;2022-07-29T10:44:35;5.38;;;4.53;;
69369;SDS011;56530;42.640;23.372;2022-07-29T10:47:05;5.07;;;4.53;;
69369;SDS011;56530;42.640;23.372;2022-07-29T10:49:30;4.50;;;4.10;;
69369;SDS011;56530;42.640;23.372;2022-07-29T10:54:37;4.35;;;4.05;;
69369;SDS011;56530;42.640;23.372;2022-07-29T10:59:45;5.50;;;4.15;;
69369;SDS011;56530;42.640;23.372;2022-07-29T11:05:00;5.95;;;4.07;;
69369;SDS011;56530;42.640;23.372;2022-07-29T11:07:28;4.80;;;4.40;;
69369;SDS011;56530;42.640;23.372;2022-07-29T11:15:07;4.43;;;4.03;;
69369;SDS011;56530;42.640;23.372;2022-07-29T11:31:19;6.53;;;4.95;;
69369;SDS011;56530;42.640;23.372;2022-07-29T11:33:57;4.97;;;4.55;;
69369;SDS011;56530;42.640;23.372;2022-07-29T11:39:32;4.28;;;3.88;;
69369;SDS011;56530;42.640;23.372;2022-07-29T11:44:58;4.28;;;3.97;;
69369;SDS011;56530;42.640;23.372;2022-07-29T11:47:30;8.45;;;4.35;;
69369;SDS011;56530;42.640;23.372;2022-07-29T11:49:59;4.60;;;3.85;;
69369;SDS011;56530;42.640;23.372;2022-07-29T11:55:08;5.68;;;5.07;;
69369;SDS011;56530;42.640;23.372;2022-07-29T11:57:35;5.43;;;4.68;;
69369;SDS011;56530;42.640;23.372;2022-07-29T12:00:01;5.82;;;4.95;;
69369;SDS011;56530;42.640;23.372;2022-07-29T12:02:39;7.30;;;5.45;;
69369;SDS011;56530;42.640;23.372;2022-07-29T12:05:08;5.30;;;4.95;;
69369;SDS011;56530;42.640;23.372;2022-07-29T12:07:35;6.90;;;4.68;;
69369;SDS011;56530;42.640;23.372;2022-07-29T12:10:02;4.80;;;4.40;;
69369;SDS011;56530;42.640;23.372;2022-07-29T12:12:30;5.25;;;4.75;;
69369;SDS011;56530;42.640;23.372;2022-07-29T12:14:56;8.95;;;4.80;;
69369;SDS011;56530;42.640;23.372;2022-07-29T12:17:34;5.57;;;5.07;;
69369;SDS011;56530;42.640;23.372;2022-07-29T12:20:03;8.90;;;5.22;;
69369;SDS011;56530;42.640;23.372;2022-07-29T12:22:33;7.05;;;4.97;;
69369;SDS011;56530;42.640;23.372;2022-07-29T12:25:06;5.80;;;5.40;;
69369;SDS011;56530;42.640;23.372;2022-07-29T12:27:34;6.03;;;5.40;;
69369;SDS011;56530;42.640;23.372;2022-07-29T12:30:04;5.78;;;5.35;;
69369;SDS011;56530;42.640;23.372;2022-07-29T12:32:35;6.57;;;5.32;;
69369;SDS011;56530;42.640;23.372;2022-07-29T12:35:02;6.53;;;5.68;;
69369;SDS011;56530;42.640;23.372;2022-07-29T12:37:30;6.22;;;5.60;;
69369;SDS011;56530;42.640;23.372;2022-07-29T12:39:56;5.50;;;5.05;;
69369;SDS011;56530;42.640;23.372;2022-07-29T12:42:21;5.30;;;4.93;;
69369;SDS011;56530;42.640;23.372;2022-07-29T12:44:48;5.93;;;5.53;;
69369;SDS011;56530;42.640;23.372;2022-07-29T12:47:15;6.15;;;5.65;;
69369;SDS011;56530;42.640;23.372;2022-07-29T12:49:41;6.40;;;5.78;;
69369;SDS011;56530;42.640;23.372;2022-07-29T12:54:57;6.13;;;5.45;;
69369;SDS011;56530;42.640;23.372;2022-07-29T12:57:23;6.00;;;5.25;;
69369;SDS011;56530;42.640;23.372;2022-07-29T13:02:53;5.25;;;4.90;;
69369;SDS011;56530;42.640;23.372;2022-07-29T13:05:20;6.00;;;5.07;;
69369;SDS011;56530;42.640;23.372;2022-07-29T13:07:45;8.35;;;5.57;;
69369;SDS011;56530;42.640;23.372;2022-07-29T13:10:12;5.45;;;4.95;;
69369;SDS011;56530;42.640;23.372;2022-07-29T13:13:00;5.55;;;5.10;;
69369;SDS011;56530;42.640;23.372;2022-07-29T13:15:33;5.90;;;5.15;;
69369;SDS011;56530;42.640;23.372;2022-07-29T13:18:00;8.27;;;5.03;;
69369;SDS011;56530;42.640;23.372;2022-07-29T13:20:27;6.25;;;5.68;;
69369;SDS011;56530;42.640;23.372;2022-07-29T13:22:59;5.38;;;4.53;;
69369;SDS011;56530;42.640;23.372;2022-07-29T13:27:51;5.15;;;4.78;;
69369;SDS011;56530;42.640;23.372;2022-07-29T13:30:19;5.65;;;5.20;;
69369;SDS011;56530;42.640;23.372;2022-07-29T13:32:46;5.32;;;4.80;;
69369;SDS011;56530;42.640;23.372;2022-07-29T13:35:12;5.70;;;5.20;;
69369;SDS011;56530;42.640;23.372;2022-07-29T13:37:38;6.95;;;4.80;;
69369;SDS011;56530;42.640;23.372;2022-07-29T13:40:04;5.50;;;5.00;;
69369;SDS011;56530;42.640;23.372;2022-07-29T13:42:31;5.38;;;4.97;;
69369;SDS011;56530;42.640;23.372;2022-07-29T13:44:57;6.47;;;5.20;;
69369;SDS011;56530;42.640;23.372;2022-07-29T13:47:23;5.45;;;5.05;;
69369;SDS011;56530;42.640;23.372;2022-07-29T13:49:49;5.95;;;5.45;;
69369;SDS011;56530;42.640;23.372;2022-07-29T13:52:15;5.32;;;4.90;;
69369;SDS011;56530;42.640;23.372;2022-07-29T13:54:40;6.90;;;5.47;;
69369;SDS011;56530;42.640;23.372;2022-07-29T13:57:06;5.40;;;4.75;;
69369;SDS011;56530;42.640;23.372;2022-07-29T13:59:32;5.15;;;4.72;;
69369;SDS011;56530;42.640;23.372;2022-07-29T14:01:58;5.60;;;5.10;;
69369;SDS011;56530;42.640;23.372;2022-07-29T14:04:24;5.85;;;5.38;;
69369;SDS011;56530;42.640;23.372;2022-07-29T14:06:49;7.15;;;5.35;;
69369;SDS011;56530;42.640;23.372;2022-07-29T14:09:15;7.13;;;5.53;;
69369;SDS011;56530;42.640;23.372;2022-07-29T14:11:41;6.35;;;4.28;;
69369;SDS011;56530;42.640;23.372;2022-07-29T14:14:06;6.25;;;5.35;;
69369;SDS011;56530;42.640;23.372;2022-07-29T14:16:32;6.88;;;4.85;;
69369;SDS011;56530;42.640;23.372;2022-07-29T14:18:58;4.97;;;4.47;;
69369;SDS011;56530;42.640;23.372;2022-07-29T14:21:23;5.50;;;5.10;;
69369;SDS011;56530;42.640;23.372;2022-07-29T14:23:49;6.00;;;5.40;;
69369;SDS011;56530;42.640;23.372;2022-07-29T14:26:14;8.52;;;4.85;;
69369;SDS011;56530;42.640;23.372;2022-07-29T14:28:40;5.57;;;5.07;;
69369;SDS011;56530;42.640;23.372;2022-07-29T14:31:05;7.65;;;6.28;;
69369;SDS011;56530;42.640;23.372;2022-07-29T14:33:31;9.00;;;5.60;;
69369;SDS011;56530;42.640;23.372;2022-07-29T14:35:56;7.57;;;5.95;;
69369;SDS011;56530;42.640;23.372;2022-07-29T14:38:21;5.93;;;5.10;;
69369;SDS011;56530;42.640;23.372;2022-07-29T14:40:47;10.57;;;6.00;;
69369;SDS011;56530;42.640;23.372;2022-07-29T14:43:13;6.35;;;5.78;;
69369;SDS011;56530;42.640;23.372;2022-07-29T14:45:39;5.53;;;5.03;;
69369;SDS011;56530;42.640;23.372;2022-07-29T14:48:05;7.57;;;5.50;;
69369;SDS011;56530;42.640;23.372;2022-07-29T14:50:30;5.78;;;5.32;;
69369;SDS011;56530;42.640;23.372;2022-07-29T14:52:56;6.18;;;5.57;;
69369;SDS011;56530;42.640;23.372;2022-07-29T14:55:21;6.15;;;5.55;;
69369;SDS011;56530;42.640;23.372;2022-07-29T14:57:47;6.97;;;5.43;;
69369;SDS011;56530;42.640;23.372;2022-07-29T15:00:13;6.55;;;5.53;;
69369;SDS011;56530;42.640;23.372;2022-07-29T15:02:39;8.27;;;5.43;;
69369;SDS011;56530;42.640;23.372;2022-07-29T15:05:04;5.93;;;5.32;;
69369;SDS011;56530;42.640;23.372;2022-07-29T15:07:30;6.53;;;6.03;;
69369;SDS011;56530;42.640;23.372;2022-07-29T15:09:56;6.35;;;5.75;;
69369;SDS011;56530;42.640;23.372;2022-07-29T15:12:21;11.85;;;6.45;;
69369;SDS011;56530;42.640;23.372;2022-07-29T15:14:46;5.65;;;5.15;;
69369;SDS011;56530;42.640;23.372;2022-07-29T15:17:12;6.97;;;5.45;;
69369;SDS011;56530;42.640;23.372;2022-07-29T15:19:38;5.75;;;5.22;;
69369;SDS011;56530;42.640;23.372;2022-07-29T15:22:03;6.05;;;5.10;;
69369;SDS011;56530;42.640;23.372;2022-07-29T15:24:32;9.57;;;4.95;;
69369;SDS011;56530;42.640;23.372;2022-07-29T15:26:57;5.60;;;5.10;;
69369;SDS011;56530;42.640;23.372;2022-07-29T15:29:23;5.32;;;4.78;;
69369;SDS011;56530;42.640;23.372;2022-07-29T15:31:48;6.70;;;4.97;;
69369;SDS011;56530;42.640;23.372;2022-07-29T15:34:14;10.07;;;5.90;;
69369;SDS011;56530;42.640;23.372;2022-07-29T15:36:39;4.70;;;4.32;;
69369;SDS011;56530;42.640;23.372;2022-07-29T15:39:05;8.93;;;4.72;;
69369;SDS011;56530;42.640;23.372;2022-07-29T15:41:30;6.43;;;4.30;;
69369;SDS011;56530;42.640;23.372;2022-07-29T15:43:56;4.47;;;4.00;;